Terminal Aerodrome Forecast
Issued by NWS

Home | Current Version | Previous Version | Text Only | Print | Product List | Glossary Off
Versions: 1 2 3 4 5 6 7 8 9 10 11 12 13 14 15

000
FTUS43 KICT 190822 AAA
TAFCNU
TAF AMD
KCNU 190822Z 1908/2006 33007KT P6SM VCSH BKN090 OVC250
      TEMPO 1908/1910 -SHRA BKN040 OVC250
     FM191200 VRB06KT 3SM BR VCTS OVC025CB
     FM191400 18008KT P6SM VCSH BKN050
     FM191700 25009KT P6SM SCT040 BKN100
     FM192100 32015KT 5SM -TSRA OVC025CB
     FM200300 31012KT P6SM BKN035=

USA.gov is the U.S. government's official web portal to all federal, state and local government web resources and services.